Time;durP1;ratioP1;P1;durP2;ratioP2;P2;SDS_P1;SDS_P2;PMS_P1;PMS_P2;Temp;Humidity;BMP_temperature;BMP_pressure;BME280_temperature;BME280_humidity;BME280_pressure;Samples;Min_cycle;Max_cycle;Signal;HPM_P1;HPM_P2
2022/09/27 00:00:03;;;;;;;8.00;1.90;;;12.50;99.90;;;11.24;85.49;99200.88;4946309;28;20054;-76
2022/09/27 00:02:28;;;;;;;4.90;1.55;;;12.40;99.90;;;11.23;85.42;99200.97;4962488;28;20042;-76
2022/09/27 00:04:55;;;;;;;4.97;1.80;;;12.40;99.90;;;11.19;85.24;99199.56;4963368;28;20039;-77
2022/09/27 00:07:20;;;;;;;7.00;1.85;;;12.40;99.90;;;11.12;85.34;99193.03;4944488;28;20027;-76
2022/09/27 00:09:46;;;;;;;4.80;1.73;;;12.40;99.90;;;11.12;85.01;99193.03;4945835;28;20094;-76
2022/09/27 00:12:12;;;;;;;5.63;1.70;;;12.30;99.90;;;11.11;85.45;99189.56;4958565;28;20114;-76
2022/09/27 00:14:41;;;;;;;12.77;1.80;;;12.30;99.90;;;11.09;85.30;99181.78;4944450;28;20023;-76
2022/09/27 00:17:08;;;;;;;7.32;1.67;;;12.30;99.90;;;11.09;85.57;99178.31;4963468;28;20070;-76
2022/09/27 00:19:34;;;;;;;5.18;1.92;;;12.30;99.90;;;11.09;85.75;99176.50;4945475;28;20038;-76
2022/09/27 00:22:00;;;;;;;6.20;1.80;;;12.30;99.90;;;11.08;85.54;99182.75;4957836;28;20032;-76
2022/09/27 00:24:26;;;;;;;4.55;1.60;;;12.30;99.90;;;11.03;86.16;99173.47;4962015;28;20057;-76
2022/09/27 00:26:52;;;;;;;6.78;1.73;;;12.30;99.90;;;11.00;86.00;99173.72;4961604;28;20026;-76
2022/09/27 00:29:18;;;;;;;9.40;2.22;;;12.20;99.90;;;10.98;86.03;99165.91;4961568;28;20024;-76
2022/09/27 00:31:46;;;;;;;6.05;1.85;;;12.20;99.90;;;10.94;86.35;99163.63;4932930;28;20153;-76
2022/09/27 00:34:24;;;;;;;5.43;1.88;;;12.20;99.90;;;10.88;86.74;99157.88;4943733;28;20058;-76
2022/09/27 00:36:51;;;;;;;7.30;1.95;;;12.10;99.90;;;10.82;87.87;99158.31;4944187;28;20031;-76
2022/09/27 00:39:17;;;;;;;9.00;2.03;;;12.10;99.90;;;10.80;87.06;99154.94;4944091;28;20089;-76
2022/09/27 00:41:44;;;;;;;5.43;1.92;;;12.10;99.90;;;10.78;87.64;99148.94;4960197;28;20042;-76
2022/09/27 00:44:28;;;;;;;3.95;1.80;;;12.00;99.90;;;10.79;88.08;99147.16;4943872;28;20046;-76
2022/09/27 00:47:20;;;;;;;8.10;2.08;;;12.00;99.90;;;10.77;88.22;99139.34;4962159;28;20038;-76
2022/09/27 00:50:21;;;;;;;5.05;2.08;;;12.00;99.90;;;10.72;87.74;99138.03;4938823;28;20038;-76
2022/09/27 00:53:00;;;;;;;3.78;2.03;;;12.00;99.90;;;10.70;88.24;99138.13;4944690;28;20113;-76
2022/09/27 00:55:33;;;;;;;8.25;2.10;;;11.90;99.90;;;10.64;88.93;99134.13;4958502;28;20031;-76
2022/09/27 00:58:01;;;;;;;4.50;1.75;;;11.90;99.90;;;10.67;89.40;99133.09;4946452;28;20056;-76
2022/09/27 01:00:27;;;;;;;6.15;2.05;;;11.90;99.90;;;10.63;89.55;99127.19;4943907;28;21230;-76
2022/09/27 01:02:55;;;;;;;8.30;2.35;;;11.90;99.90;;;10.62;89.70;99122.88;4961123;28;20023;-76
2022/09/27 01:05:25;;;;;;;5.82;2.22;;;11.80;99.90;;;10.52;90.21;99121.88;4947223;28;20031;-76
2022/09/27 01:07:55;;;;;;;5.10;2.20;;;11.80;99.90;;;10.52;90.24;99118.38;4941848;28;20038;-76
2022/09/27 01:10:24;;;;;;;8.38;2.17;;;11.80;99.90;;;10.54;90.36;99114.72;4957210;28;20085;-76
2022/09/27 01:13:03;;;;;;;4.88;2.03;;;11.80;99.90;;;10.49;90.78;99118.63;4941715;28;20031;-76
2022/09/27 01:16:00;;;;;;;6.97;2.00;;;11.80;99.90;;;10.47;90.58;99113.44;4959058;28;20125;-76
2022/09/27 01:18:43;;;;;;;;;;;11.80;99.90;;;10.43;90.82;99112.84;4951792;28;20200;-76
2022/09/27 01:21:52;;;;;;;6.68;2.38;;;11.70;99.90;;;10.42;91.08;99107.69;4954489;28;19910;-76
2022/09/27 01:24:26;;;;;;;2.65;2.00;;;11.70;99.90;;;10.39;91.20;99100.88;4951564;28;20042;-76
2022/09/27 01:27:13;;;;;;;4.43;1.90;;;11.70;99.90;;;10.29;91.62;99099.84;4956466;28;20031;-76
2022/09/27 01:30:19;;;;;;;4.18;2.08;;;11.60;99.90;;;10.36;91.21;99095.81;4957528;28;20027;-76
2022/09/27 01:33:05;;;;;;;5.85;2.10;;;11.60;99.90;;;10.36;91.31;99100.22;4944415;28;20106;-76
2022/09/27 01:36:27;;;;;;;7.70;2.20;;;11.60;99.90;;;10.36;91.30;99095.81;4926332;28;20027;-76
2022/09/27 01:39:11;;;;;;;8.38;2.45;;;11.60;99.90;;;10.33;91.42;99103.09;4961164;28;20499;-76
2022/09/27 01:42:21;;;;;;;11.75;2.17;;;11.60;99.90;;;10.38;91.64;99101.78;4939458;28;20113;-76
2022/09/27 01:45:14;;;;;;;8.30;2.20;;;11.60;99.90;;;10.34;91.43;99099.50;4921389;29;20036;-76
2022/09/27 01:47:53;;;;;;;6.07;2.25;;;11.60;99.90;;;10.37;91.86;99097.50;4921202;29;20135;-76
2022/09/27 01:50:34;;;;;;;5.32;2.33;;;11.60;99.90;;;10.37;92.21;99092.25;4948620;28;20134;-76
2022/09/27 01:53:19;;;;;;;7.55;2.35;;;11.70;99.90;;;10.42;91.71;99095.38;4956228;28;20515;-76
2022/09/27 01:55:50;;;;;;;3.30;2.05;;;11.70;99.90;;;10.38;91.70;99088.63;4948113;28;20956;-76
2022/09/27 01:58:24;;;;;;;5.18;2.30;;;11.70;99.90;;;10.45;91.58;99086.41;4944517;28;20129;-76
2022/09/27 02:00:53;;;;;;;4.68;1.95;;;11.70;99.90;;;10.49;91.50;99089.66;4959223;28;20106;-76
2022/09/27 02:03:34;;;;;;;12.98;2.08;;;11.70;99.90;;;10.46;91.81;99086.31;4926009;28;20034;-76
2022/09/27 02:06:08;;;;;;;5.60;1.85;;;11.70;99.90;;;10.50;91.22;99086.09;4943498;28;20049;-76
2022/09/27 02:09:05;;;;;;;6.25;1.92;;;11.80;99.90;;;10.53;91.65;99085.88;4957828;28;21219;-76
2022/09/27 02:11:34;;;;;;;8.93;1.92;;;11.80;99.90;;;10.51;91.47;99079.88;4942821;28;20027;-76
2022/09/27 02:14:17;;;;;;;5.97;2.20;;;11.80;99.90;;;10.53;91.55;99078.81;4949443;28;20027;-76
2022/09/27 02:16:53;;;;;;;4.72;2.00;;;11.80;99.90;;;10.54;91.33;99071.75;4945030;28;20455;-76
2022/09/27 02:19:40;;;;;;;4.53;1.98;;;11.80;99.90;;;10.54;91.46;99067.34;4942149;28;20110;-76
2022/09/27 02:22:39;;;;;;;4.53;2.30;;;11.80;99.90;;;10.49;91.38;99063.34;4925715;28;20046;-76
2022/09/27 02:25:20;;;;;;;7.22;2.05;;;11.80;99.90;;;10.52;91.43;99060.47;4959060;28;20113;-76
2022/09/27 02:28:23;;;;;;;8.18;2.30;;;11.80;99.90;;;10.53;91.45;99062.19;4957077;28;20035;-76
2022/09/27 02:30:49;;;;;;;4.93;1.95;;;11.80;99.90;;;10.55;91.62;99062.91;4956608;28;20523;-76
2022/09/27 02:33:27;;;;;;;6.20;2.08;;;11.80;99.90;;;10.53;91.65;99064.81;4936299;28;20033;-76
2022/09/27 02:35:53;;;;;;;3.47;2.10;;;11.80;99.90;;;10.58;91.36;99055.63;4945390;28;20034;-76
2022/09/27 02:38:19;;;;;;;5.35;1.90;;;11.80;99.90;;;10.56;91.63;99051.41;4942514;28;20035;-76
2022/09/27 02:40:47;;;;;;;6.05;2.10;;;11.80;99.90;;;10.57;91.59;99051.31;4925975;28;20039;-76
2022/09/27 02:43:16;;;;;;;9.15;2.20;;;11.80;99.90;;;10.52;91.74;99044.69;4957628;28;20050;-76
2022/09/27 02:46:09;;;;;;;5.28;1.85;;;11.80;99.90;;;10.56;91.31;99052.28;4939035;28;20154;-76
2022/09/27 02:49:15;;;;;;;6.72;1.90;;;11.80;99.90;;;10.53;91.28;99041.13;4960326;28;20058;-76
2022/09/27 02:52:31;;;;;;;5.80;1.80;;;11.80;99.90;;;10.54;91.47;99048.06;4945130;28;20034;-76
2022/09/27 02:55:09;;;;;;;8.85;2.03;;;11.80;99.90;;;10.55;91.60;99042.69;4942866;28;20065;-76
2022/09/27 02:57:44;;;;;;;3.65;1.90;;;11.80;99.90;;;10.54;91.36;99041.03;4941726;28;20035;-76
2022/09/27 03:00:20;;;;;;;7.05;2.00;;;11.80;99.90;;;10.54;91.51;99035.75;4961492;28;20085;-76
2022/09/27 03:03:03;;;;;;;3.10;1.95;;;11.80;99.90;;;10.49;91.61;99035.25;4946152;28;20038;-76
2022/09/27 03:05:41;;;;;;;5.63;2.17;;;11.80;99.90;;;10.56;91.73;99040.88;4944203;28;20023;-76
2022/09/27 03:08:08;;;;;;;10.32;2.40;;;11.80;99.90;;;10.56;91.41;99035.63;4947716;28;20043;-76
2022/09/27 03:10:34;;;;;;;7.20;2.15;;;11.80;99.90;;;10.56;91.57;99027.72;4944618;28;20027;-76
2022/09/27 03:13:03;;;;;;;8.43;2.22;;;11.80;99.90;;;10.60;91.04;99029.19;4962343;28;20503;-76
2022/09/27 03:15:30;;;;;;;6.22;2.10;;;11.80;99.90;;;10.63;91.13;99031.63;4948334;28;20023;-76
2022/09/27 03:17:56;;;;;;;4.63;1.90;;;11.80;99.90;;;10.60;90.99;99022.13;4946248;28;20031;-76
2022/09/27 03:20:22;;;;;;;7.70;2.08;;;11.80;99.90;;;10.63;91.18;99026.34;4945105;28;20118;-76
2022/09/27 03:22:48;;;;;;;6.32;2.17;;;11.90;99.90;;;10.64;91.23;99022.75;4960724;28;20027;-76
2022/09/27 03:25:14;;;;;;;3.72;2.15;;;11.90;99.90;;;10.61;91.16;99023.81;4946087;28;20514;-76
2022/09/27 03:27:40;;;;;;;3.50;1.98;;;11.90;99.90;;;10.62;91.31;99022.03;4964584;28;20035;-76
2022/09/27 03:30:07;;;;;;;6.15;2.00;;;11.90;99.90;;;10.65;91.13;99017.38;4946070;28;20031;-76
2022/09/27 03:32:33;;;;;;;12.63;2.55;;;11.90;99.90;;;10.62;91.16;99014.13;4945096;28;20027;-76
2022/09/27 03:34:58;;;;;;;7.10;3.10;;;11.90;99.90;;;10.61;91.01;99013.28;4943784;28;20079;-76
2022/09/27 03:37:28;;;;;;;5.50;2.40;;;11.90;99.90;;;10.62;91.64;99016.75;4959616;28;20024;-76
2022/09/27 03:39:54;;;;;;;9.07;2.10;;;11.90;99.90;;;10.66;91.55;99007.69;4962410;28;20034;-76
2022/09/27 03:42:20;;;;;;;4.60;2.17;;;11.80;99.90;;;10.64;91.55;99004.31;4944274;28;20083;-76
2022/09/27 03:44:47;;;;;;;6.53;2.13;;;11.80;99.90;;;10.59;92.05;99001.19;4942227;28;20587;-76
2022/09/27 03:47:13;;;;;;;4.85;2.22;;;11.80;99.90;;;10.62;92.12;99001.78;4946525;28;20043;-76
2022/09/27 03:49:39;;;;;;;5.07;2.00;;;11.90;99.90;;;10.66;91.99;98991.88;4944852;28;20039;-76
2022/09/27 03:52:04;;;;;;;8.07;2.10;;;11.90;99.90;;;10.65;91.83;98995.50;4928158;28;20031;-76
2022/09/27 03:54:31;;;;;;;3.85;2.15;;;11.80;99.90;;;10.60;92.48;98982.66;4946674;28;20078;-76
2022/09/27 03:56:57;;;;;;;3.13;1.80;;;11.80;99.90;;;10.59;92.32;98978.34;4961374;28;20475;-76
2022/09/27 03:59:23;;;;;;;7.65;2.13;;;11.80;99.90;;;10.54;92.25;98982.25;4945967;28;20030;-76
2022/09/27 04:01:49;;;;;;;4.35;2.05;;;11.80;99.90;;;10.53;92.68;98985.88;4945589;28;20496;-76
2022/09/27 04:04:15;;;;;;;7.22;2.33;;;11.80;99.90;;;10.54;92.43;98974.38;4946428;28;20038;-76
2022/09/27 04:06:41;;;;;;;8.57;1.95;;;11.80;99.90;;;10.52;92.79;98977.13;4943788;28;20039;-76
2022/09/27 04:09:10;;;;;;;3.67;2.10;;;11.80;99.90;;;10.50;92.84;98965.88;4960500;28;20399;-76
2022/09/27 04:11:35;;;;;;;8.75;2.40;;;11.70;99.90;;;10.46;93.24;98970.53;4942461;28;20034;-76
2022/09/27 04:14:03;;;;;;;3.90;1.88;;;11.70;99.90;;;10.47;93.51;98976.63;4943444;28;20023;-76
2022/09/27 04:16:31;;;;;;;4.05;2.17;;;11.70;99.90;;;10.48;93.32;98966.94;4964008;28;20026;-76
2022/09/27 04:18:57;;;;;;;3.60;1.77;;;11.70;99.90;;;10.51;93.24;98978.06;4959803;28;20027;-76
2022/09/27 04:21:23;;;;;;;5.15;1.90;;;11.70;99.90;;;10.46;93.34;98967.91;4959739;28;20035;-76
2022/09/27 04:23:49;;;;;;;3.90;2.20;;;11.70;99.90;;;10.46;93.57;98967.06;4958683;28;20050;-76
2022/09/27 04:26:15;;;;;;;5.13;2.38;;;11.70;99.90;;;10.45;93.87;98973.25;4960693;28;20043;-76
2022/09/27 04:28:41;;;;;;;4.80;2.00;;;11.70;99.90;;;10.44;93.38;98977.69;4945556;28;20034;-76
2022/09/27 04:31:07;;;;;;;4.93;2.45;;;11.70;99.90;;;10.44;93.28;98964.53;4944132;28;20031;-76
2022/09/27 04:33:33;;;;;;;4.38;2.10;;;11.70;99.90;;;10.42;94.04;98963.81;4944647;28;20035;-76
2022/09/27 04:38:43;;;;;;;5.65;2.30;;;11.70;99.90;;;10.46;94.13;98967.91;4947055;28;20562;-76
2022/09/27 04:41:09;;;;;;;5.97;2.25;;;11.60;99.90;;;10.38;94.49;98964.97;4929116;28;20030;-75
2022/09/27 04:43:35;;;;;;;5.15;2.40;;;11.70;99.90;;;10.39;94.50;98964.03;4957699;28;20031;-76
2022/09/27 04:46:01;;;;;;;5.40;2.33;;;11.60;99.90;;;10.39;94.50;98961.41;4960552;28;20074;-76
2022/09/27 04:48:27;;;;;;;3.85;2.10;;;11.60;99.90;;;10.38;94.67;98967.63;4943527;28;20090;-76
2022/09/27 04:51:02;;;;;;;9.95;2.35;;;11.60;99.90;;;10.35;94.77;98959.97;4946066;28;20159;-76
2022/09/27 04:53:28;;;;;;;5.68;2.40;;;11.60;99.90;;;10.32;95.09;98957.53;4935742;28;20038;-76
2022/09/27 04:55:55;;;;;;;4.45;2.58;;;11.60;99.90;;;10.32;95.08;98962.78;4927181;28;20027;-76
2022/09/27 04:58:22;;;;;;;4.47;2.50;;;11.60;99.90;;;10.32;95.71;98968.06;4943558;28;20052;-76
2022/09/27 05:00:51;;;;;;;10.40;2.80;;;11.60;99.90;;;10.34;95.92;98960.06;4942839;28;20101;-76
2022/09/27 05:03:18;;;;;;;4.53;2.30;;;11.60;99.90;;;10.29;96.64;98968.28;4936234;28;20109;-76
2022/09/27 05:05:44;;;;;;;8.52;2.53;;;11.60;99.90;;;10.30;96.62;98969.97;4927356;28;20039;-76
2022/09/27 05:08:10;;;;;;;6.68;2.60;;;11.60;99.90;;;10.30;96.78;98966.50;4959724;28;20384;-76
2022/09/27 05:10:36;;;;;;;5.72;2.47;;;11.50;99.90;;;10.25;97.29;98967.63;4944591;28;20030;-76
2022/09/27 05:13:02;;;;;;;6.78;2.95;;;11.60;99.90;;;10.29;97.93;98970.94;4940670;28;20034;-76
2022/09/27 05:15:28;;;;;;;5.72;2.75;;;11.60;99.90;;;10.27;98.28;98967.53;4960350;28;20548;-76
2022/09/27 05:17:54;;;;;;;6.93;3.65;;;11.60;99.90;;;10.28;98.81;98963.97;4944672;28;20506;-75
2022/09/27 05:20:20;;;;;;;9.80;3.85;;;11.60;99.90;;;10.26;99.28;98966.72;4941998;28;20051;-76
2022/09/27 05:22:46;;;;;;;6.07;3.22;;;11.60;99.90;;;10.26;99.65;98969.34;4960624;28;20042;-76
2022/09/27 05:25:12;;;;;;;9.82;4.60;;;11.50;99.90;;;10.21;100.00;98970.59;4943602;28;20085;-75
2022/09/27 05:27:38;;;;;;;5.38;3.90;;;11.50;99.90;;;10.22;100.00;98973.13;4941153;28;20106;-75
2022/09/27 05:30:07;;;;;;;8.00;4.10;;;11.50;99.90;;;10.17;100.00;98964.75;4959444;28;20399;-75
2022/09/27 05:32:34;;;;;;;9.32;4.90;;;11.50;99.90;;;10.16;100.00;98967.50;4929208;28;20518;-75
2022/09/27 05:34:59;;;;;;;10.07;4.45;;;11.50;99.90;;;10.19;100.00;98972.50;4960972;28;20039;-75
2022/09/27 05:37:25;;;;;;;12.07;4.53;;;11.50;99.90;;;10.19;100.00;98972.50;4944058;28;20041;-75
2022/09/27 05:39:51;;;;;;;6.38;3.42;;;11.50;99.90;;;10.20;100.00;98979.47;4944020;28;20522;-75
2022/09/27 05:42:18;;;;;;;8.10;5.03;;;11.50;99.90;;;10.23;100.00;98974.81;4958639;28;20559;-75
2022/09/27 05:44:46;;;;;;;7.05;3.80;;;11.50;99.90;;;10.20;100.00;98964.53;4959744;28;20031;-75
2022/09/27 05:47:12;;;;;;;8.07;3.75;;;11.50;99.90;;;10.20;100.00;98975.03;4962125;28;20029;-75
2022/09/27 05:49:41;;;;;;;6.63;3.25;;;11.50;99.90;;;10.20;100.00;98971.56;4962401;28;20019;-75
2022/09/27 05:52:07;;;;;;;8.43;3.78;;;11.50;99.90;;;10.21;100.00;98971.44;4942484;28;20041;-75
2022/09/27 05:54:33;;;;;;;7.90;3.97;;;11.50;99.90;;;10.25;100.00;98965.00;4960945;28;20078;-75
2022/09/27 05:56:59;;;;;;;10.05;4.45;;;11.50;99.90;;;10.30;100.00;98971.75;4943847;28;20616;-75
2022/09/27 05:59:26;;;;;;;14.00;7.43;;;11.50;99.90;;;10.31;100.00;98971.66;4957560;28;20027;-75
2022/09/27 06:01:53;;;;;;;10.88;6.75;;;11.50;99.90;;;10.35;100.00;98970.47;4943050;28;20039;-75
2022/09/27 06:04:22;;;;;;;15.55;8.05;;;11.50;99.90;;;10.30;100.00;98966.50;4957386;28;20031;-74
2022/09/27 06:06:48;;;;;;;11.20;6.88;;;11.50;99.90;;;10.29;100.00;98972.69;4958851;28;20043;-75
2022/09/27 06:09:15;;;;;;;9.57;5.15;;;11.50;99.90;;;10.31;100.00;98966.41;4927687;28;20400;-74
2022/09/27 06:11:45;;;;;;;12.25;6.90;;;11.50;99.90;;;10.22;100.00;98962.63;4941287;28;20504;-75
2022/09/27 06:14:12;;;;;;;21.67;9.98;;;11.50;99.90;;;10.23;100.00;98966.91;4928688;28;20554;-74
2022/09/27 06:16:38;;;;;;;10.57;5.70;;;11.50;99.90;;;10.29;100.00;98962.16;4958156;28;20031;-75
2022/09/27 06:19:03;;;;;;;8.82;5.13;;;11.50;99.90;;;10.27;100.00;98964.91;4958087;28;20035;-74
2022/09/27 06:21:31;;;;;;;10.43;6.15;;;11.50;99.90;;;10.30;100.00;98956.81;4945008;28;20514;-74
2022/09/27 06:24:00;;;;;;;11.55;6.32;;;11.50;99.90;;;10.27;100.00;98962.28;4938759;28;20038;-74
2022/09/27 06:26:26;;;;;;;10.82;5.38;;;11.50;99.90;;;10.28;100.00;98958.72;4943510;28;20034;-74
2022/09/27 06:28:53;;;;;;;11.60;6.35;;;11.60;99.90;;;10.32;100.00;98954.91;4940057;28;20034;-74
2022/09/27 06:31:20;;;;;;;10.13;4.97;;;11.50;99.90;;;10.26;100.00;98955.34;4958190;28;20406;-74
2022/09/27 06:33:48;;;;;;;10.75;5.25;;;11.50;99.90;;;10.24;100.00;98960.72;4942865;28;20098;-74
2022/09/27 06:36:14;;;;;;;7.18;4.30;;;11.50;99.90;;;10.25;100.00;98959.75;4960640;28;20042;-74
2022/09/27 06:38:39;;;;;;;13.50;4.57;;;11.50;99.90;;;10.21;100.00;98960.09;4944395;28;20407;-74
2022/09/27 06:41:08;;;;;;;10.13;5.32;;;11.50;99.90;;;10.22;100.00;98952.09;4946015;28;20035;-74
2022/09/27 06:43:34;;;;;;;6.22;4.15;;;11.50;99.90;;;10.14;100.00;98954.44;4959506;28;20054;-74
2022/09/27 06:46:04;;;;;;;9.50;4.85;;;11.40;99.90;;;10.13;100.00;98958.03;4936121;28;20050;-74
2022/09/27 06:48:32;;;;;;;10.40;4.07;;;11.40;99.90;;;10.12;100.00;98966.88;4943031;28;20054;-74
2022/09/27 06:51:01;;;;;;;11.75;4.30;;;11.40;99.90;;;10.18;100.00;98962.97;4962170;28;20032;-74
2022/09/27 06:53:29;;;;;;;12.63;4.97;;;11.40;99.90;;;10.23;100.00;98968.72;4943622;28;20050;-75
2022/09/27 06:56:01;;;;;;;7.95;4.55;;;11.40;99.90;;;10.23;100.00;98968.72;4960096;28;20566;-74
2022/09/27 07:01:13;;;;;;;8.65;4.20;;;11.40;99.90;;;10.29;100.00;98968.28;4946913;28;20511;-74
2022/09/27 07:03:41;;;;;;;10.57;4.50;;;11.50;99.90;;;10.30;100.00;98963.88;4958147;28;20023;-75
2022/09/27 07:06:24;;;;;;;8.50;4.03;;;11.50;99.90;;;10.33;100.00;98975.00;4962054;28;20045;-75
2022/09/27 07:08:54;;;;;;;7.35;4.78;;;11.60;99.90;;;10.41;100.00;98971.81;4943529;28;20038;-74
2022/09/27 07:11:21;;;;;;;7.68;3.97;;;11.60;99.90;;;10.46;100.00;98970.53;4946645;28;20035;-75
2022/09/27 07:13:47;;;;;;;8.60;4.20;;;11.70;99.90;;;10.49;100.00;98968.63;4943898;28;20027;-75
2022/09/27 07:16:13;;;;;;;7.10;4.00;;;11.70;99.90;;;10.49;100.00;98977.34;4960672;28;20043;-75
2022/09/27 07:18:42;;;;;;;7.45;4.22;;;11.70;99.90;;;10.51;100.00;98975.44;4940548;28;20426;-75
2022/09/27 07:21:09;;;;;;;6.35;4.40;;;11.80;99.90;;;10.57;100.00;98976.78;4949696;28;20027;-75
2022/09/27 07:23:36;;;;;;;7.35;4.32;;;11.80;99.90;;;10.63;100.00;98971.06;4944707;28;20031;-75
2022/09/27 07:26:09;;;;;;;10.00;4.53;;;11.80;99.90;;;10.71;100.00;98975.75;4944802;28;20478;-75
2022/09/27 07:28:35;;;;;;;8.10;4.40;;;11.90;99.90;;;10.78;100.00;98976.97;4946575;28;20389;-75
2022/09/27 07:31:03;;;;;;;7.05;3.97;;;11.90;99.90;;;10.83;100.00;98977.47;4946749;28;20445;-75
2022/09/27 07:33:30;;;;;;;7.03;4.45;;;12.00;99.90;;;10.87;100.00;98969.22;4942308;28;20023;-75
2022/09/27 07:35:56;;;;;;;6.32;3.83;;;12.00;99.90;;;10.80;100.00;98970.66;4945062;28;20102;-75
2022/09/27 07:38:22;;;;;;;9.45;4.65;;;12.10;99.90;;;10.92;100.00;98974.13;4961251;28;20038;-75
2022/09/27 07:40:48;;;;;;;8.63;4.78;;;12.10;99.90;;;10.94;100.00;98974.03;4943810;28;20030;-75
2022/09/27 07:43:14;;;;;;;8.80;4.68;;;12.10;99.90;;;10.96;100.00;98967.69;4935481;28;20639;-75
2022/09/27 07:45:40;;;;;;;13.40;5.13;;;12.10;99.90;;;10.95;100.00;98980.94;4943954;28;20026;-75
2022/09/27 07:48:13;;;;;;;12.68;5.43;;;12.20;99.90;;;10.99;100.00;98977.13;4960502;28;20035;-75
2022/09/27 07:50:39;;;;;;;12.18;4.72;;;12.10;99.90;;;10.95;100.00;98975.69;4942111;28;20026;-75
2022/09/27 07:53:05;;;;;;;15.35;4.57;;;12.10;99.90;;;10.94;100.00;98971.38;4961435;28;20496;-75
2022/09/27 07:55:31;;;;;;;8.23;5.00;;;12.20;99.90;;;10.98;100.00;98975.47;4928187;28;20483;-75
2022/09/27 07:58:08;;;;;;;12.43;5.70;;;12.10;99.90;;;11.00;100.00;98973.56;4945800;28;20043;-75
2022/09/27 08:00:35;;;;;;;11.43;5.32;;;12.20;99.90;;;11.06;100.00;98970.47;4958208;28;20396;-75
2022/09/27 08:03:14;;;;;;;6.47;4.93;;;12.20;99.90;;;11.03;100.00;98976.78;4944030;28;20061;-75
2022/09/27 08:05:41;;;;;;;11.20;5.05;;;12.30;99.90;;;11.03;100.00;98970.69;4944727;28;20023;-75
2022/09/27 08:08:07;;;;;;;9.73;5.32;;;12.30;99.90;;;11.14;100.00;98973.31;4934029;28;20039;-75
2022/09/27 08:10:34;;;;;;;7.15;4.90;;;12.30;99.90;;;11.14;100.00;98970.69;4944755;28;20026;-75
2022/09/27 08:13:04;;;;;;;11.27;4.85;;;12.30;99.90;;;11.06;100.00;98968.66;4940036;28;20031;-75
2022/09/27 08:15:31;;;;;;;10.57;5.75;;;12.40;99.90;;;11.16;100.00;98976.69;4943401;28;20019;-75
2022/09/27 08:17:57;;;;;;;14.18;5.68;;;12.30;99.90;;;11.18;100.00;98977.41;4934942;28;20090;-76
2022/09/27 08:20:23;;;;;;;9.98;5.88;;;12.30;99.90;;;11.08;100.00;98977.28;4928365;28;20023;-76
2022/09/27 08:22:49;;;;;;;9.35;5.65;;;12.30;99.90;;;11.18;100.00;98976.56;4941700;28;20039;-76
2022/09/27 08:25:15;;;;;;;7.65;5.82;;;12.40;99.90;;;11.26;100.00;98972.38;4941498;28;20046;-75
2022/09/27 08:27:41;;;;;;;9.50;6.28;;;12.40;99.90;;;11.36;100.00;98974.31;4944843;28;20122;-76
2022/09/27 08:30:09;;;;;;;12.48;6.32;;;12.50;99.90;;;11.43;100.00;98975.53;4945220;28;20465;-75
2022/09/27 08:32:36;;;;;;;11.43;6.18;;;12.60;99.90;;;11.56;100.00;98986.78;4959065;28;20093;-75
2022/09/27 08:35:02;;;;;;;13.65;6.35;;;12.70;99.90;;;11.70;100.00;98977.75;4944153;28;20372;-76
2022/09/27 08:37:27;;;;;;;13.02;5.88;;;12.70;99.90;;;11.71;100.00;98979.47;4942609;28;20089;-75
2022/09/27 08:39:53;;;;;;;11.65;6.30;;;12.80;99.90;;;11.88;100.00;98980.78;4940124;28;20959;-75
2022/09/27 08:42:31;;;;;;;7.93;5.72;;;12.90;99.90;;;12.05;100.00;98977.63;4942564;28;20039;-76
2022/09/27 08:45:00;;;;;;;8.38;6.07;;;13.10;99.90;;;12.17;100.00;98978.44;4943592;28;20027;-76
2022/09/27 08:47:53;;;;;;;11.40;5.78;;;13.20;99.90;;;12.36;100.00;98979.59;4957340;28;20031;-76
2022/09/27 08:50:33;;;;;;;9.30;5.88;;;13.30;99.90;;;12.50;100.00;98982.78;4956270;28;20035;-76
2022/09/27 08:53:26;;;;;;;9.02;5.38;;;13.40;99.90;;;12.50;100.00;98979.28;4946290;28;20019;-77
2022/09/27 08:55:58;;;;;;;12.13;5.45;;;13.50;99.90;;;12.55;100.00;98989.44;4925914;28;20143;-76
2022/09/27 08:58:39;;;;;;;8.57;5.30;;;13.50;99.90;;;12.37;100.00;98984.72;4941468;28;21370;-76
2022/09/27 09:01:14;;;;;;;8.70;5.15;;;13.50;99.90;;;12.41;100.00;98978.22;4941127;28;20396;-76
2022/09/27 09:03:54;;;;;;;7.25;5.28;;;13.50;99.90;;;12.57;100.00;98982.25;4940614;28;20566;-76
2022/09/27 09:06:40;;;;;;;10.25;4.75;;;13.70;99.90;;;12.90;100.00;98984.72;4944322;28;20470;-76
2022/09/27 09:09:32;;;;;;;8.32;3.83;;;13.80;99.90;;;12.91;100.00;98977.63;4942206;28;20029;-76
2022/09/27 09:15:55;;;;;;;10.65;4.05;;;14.10;99.90;;;13.30;99.52;98975.25;4956756;28;20170;-76
2022/09/27 09:19:02;;;;;;;7.60;4.28;;;14.20;99.90;;;13.28;99.78;98977.16;4952992;28;20416;-76
2022/09/27 09:21:46;;;;;;;8.32;4.15;;;14.30;99.90;;;13.21;99.94;98970.72;4960368;28;20103;-76
2022/09/27 09:25:00;;;;;;;6.03;3.90;;;14.20;99.90;;;13.18;99.99;98965.72;4959387;28;20027;-76
2022/09/27 09:27:52;;;;;;;7.03;3.50;;;14.20;99.90;;;13.20;100.00;98969.06;4960558;28;20043;-76
2022/09/27 09:31:00;;;;;;;4.72;3.55;;;14.20;99.90;;;13.27;100.00;98968.41;4958488;28;20586;-76
2022/09/27 09:33:54;;;;;;;7.13;3.83;;;14.30;99.90;;;13.36;100.00;98973.91;4927303;28;20047;-76
2022/09/27 09:36:40;;;;;;;6.97;3.70;;;14.30;99.90;;;13.40;100.00;98970.03;4960750;28;20042;-76
2022/09/27 09:39:37;;;;;;;6.32;2.88;;;14.30;99.90;;;13.48;100.00;98972.84;4957987;28;20031;-76
2022/09/27 09:42:33;;;;;;;6.25;3.40;;;14.30;99.90;;;13.32;100.00;98960.94;4945329;28;20047;-76
2022/09/27 09:45:22;;;;;;;5.65;3.65;;;14.40;99.90;;;13.33;100.00;98975.84;4959061;28;20043;-76
2022/09/27 09:48:23;;;;;;;4.25;3.78;;;14.30;99.90;;;13.14;100.00;98970.41;4959225;28;20066;-76
2022/09/27 09:51:00;;;;;;;4.88;3.20;;;14.20;99.90;;;13.27;100.00;98970.22;4941944;28;20058;-76
2022/09/27 09:53:48;;;;;;;6.43;3.50;;;14.30;99.90;;;13.39;100.00;98963.91;4939143;28;20031;-76
2022/09/27 09:56:32;;;;;;;7.75;3.60;;;14.40;99.90;;;13.65;100.00;98969.56;4955026;28;20051;-77
2022/09/27 09:59:23;;;;;;;6.57;3.22;;;14.60;99.90;;;13.70;100.00;98956.78;4942170;28;20082;-76
2022/09/27 10:01:49;;;;;;;2.90;2.47;;;14.70;99.90;;;13.85;98.99;98959.88;4957222;28;20063;-76
2022/09/27 10:04:32;;;;;;;7.20;2.90;;;14.70;99.90;;;13.74;97.39;98960.00;4958906;28;20062;-75
2022/09/27 10:07:00;;;;;;;3.80;2.38;;;14.70;99.90;;;13.82;97.70;98954.00;4940978;28;20054;-75
2022/09/27 10:09:32;;;;;;;2.92;2.22;;;14.70;99.90;;;13.75;97.18;98957.19;4940637;28;20114;-76
2022/09/27 10:11:58;;;;;;;3.67;2.50;;;14.80;99.90;;;13.85;96.91;98954.59;4939549;28;20023;-76
2022/09/27 10:14:26;;;;;;;7.15;2.97;;;14.80;99.90;;;14.06;96.37;98957.16;4940237;28;20115;-76
2022/09/27 10:17:00;;;;;;;4.47;2.70;;;14.90;99.90;;;14.12;95.66;98964.53;4943268;28;20118;-76
2022/09/27 10:19:32;;;;;;;4.25;2.63;;;15.00;99.90;;;13.93;95.31;98961.81;4942954;28;20050;-75
2022/09/27 10:22:17;;;;;;;4.18;2.90;;;14.90;99.90;;;13.77;95.39;98956.25;4939963;28;20424;-75
2022/09/27 10:25:02;;;;;;;4.40;2.50;;;14.80;99.90;;;13.64;95.42;98952.00;4958377;28;20038;-75
2022/09/27 10:27:49;;;;;;;5.78;2.90;;;14.70;99.90;;;13.33;96.54;98944.13;4941294;28;20130;-76
2022/09/27 10:30:26;;;;;;;;;;;14.70;99.90;;;13.40;96.88;98957.63;4943546;28;20023;-76
2022/09/27 10:32:59;;;;;;;4.75;2.90;;;14.50;99.90;;;13.39;98.05;98952.47;4957336;28;19981;-75
2022/09/27 10:35:40;;;;;;;3.22;2.35;;;14.50;99.90;;;13.34;98.26;98951.06;4940595;28;20039;-75
2022/09/27 10:38:23;;;;;;;2.45;2.00;;;14.40;99.90;;;13.40;98.22;98957.63;4944268;28;20031;-75
2022/09/27 10:40:52;;;;;;;3.20;2.15;;;14.50;99.90;;;13.50;98.33;98955.06;4959486;28;20041;-76
2022/09/27 10:43:35;;;;;;;6.68;1.98;;;14.50;99.90;;;13.56;98.00;98962.41;4942672;28;20031;-76
2022/09/27 10:46:31;;;;;;;2.25;1.80;;;14.50;99.90;;;13.58;97.75;98955.19;4940873;28;20452;-76
2022/09/27 10:49:24;;;;;;;6.35;2.35;;;14.60;99.90;;;13.70;97.78;98959.41;4958711;28;20034;-75